createdAt,value
2024-02-05T00:01:10.177Z,96426.66
2024-02-05T00:03:38.308Z,96431.09
2024-02-05T00:06:06.793Z,96425.94
2024-02-05T00:08:35.693Z,96424.00
2024-02-05T00:11:06.288Z,96430.41
2024-02-05T00:13:34.498Z,96427.66
2024-02-05T00:16:03.143Z,96425.56
2024-02-05T00:18:31.397Z,96423.72
2024-02-05T00:20:59.371Z,96428.75
2024-02-05T00:23:27.347Z,96423.59
2024-02-05T00:25:55.360Z,96425.53
2024-02-05T00:28:24.826Z,96419.44
2024-02-05T00:30:52.823Z,96416.44
2024-02-05T00:33:20.795Z,96418.03
2024-02-05T00:35:48.849Z,96426.97
2024-02-05T00:38:16.862Z,96422.88
2024-02-05T00:40:45.902Z,96418.75
2024-02-05T00:43:13.889Z,96417.97
2024-02-05T00:45:43.292Z,96422.72
2024-02-05T00:48:11.388Z,96409.44
2024-02-05T00:50:39.369Z,96409.44
2024-02-05T00:53:07.500Z,96407.81
2024-02-05T00:55:35.455Z,96402.75
2024-02-05T00:58:04.561Z,96404.44
2024-02-05T01:00:32.701Z,96397.97
2024-02-05T01:03:02.608Z,96400.59
2024-02-05T01:05:30.732Z,96397.34
2024-02-05T01:07:58.931Z,96396.34
2024-02-05T01:10:26.961Z,96397.00
2024-02-05T01:12:54.939Z,96395.28
2024-02-05T01:15:22.976Z,96400.22
2024-02-05T01:17:51.027Z,96396.16
2024-02-05T01:20:20.457Z,96401.16
2024-02-05T01:22:48.983Z,96394.38
2024-02-05T01:25:17.125Z,96389.81
2024-02-05T01:27:45.242Z,96387.31
2024-02-05T01:30:14.643Z,96387.69
2024-02-05T01:32:42.631Z,96388.63
2024-02-05T01:35:11.367Z,96390.53
2024-02-05T01:37:40.773Z,96384.72
2024-02-05T01:40:11.573Z,96383.91
2024-02-05T01:42:40.861Z,96387.00
2024-02-05T01:45:10.415Z,96388.63
2024-02-05T01:47:39.435Z,96377.50
2024-02-05T01:50:10.786Z,96369.69
2024-02-05T01:52:46.160Z,96376.81
2024-02-05T01:55:16.164Z,96371.66
2024-02-05T01:57:45.370Z,96371.94
2024-02-05T02:00:16.081Z,96367.38
2024-02-05T02:02:45.029Z,96360.72
2024-02-05T02:05:14.332Z,96354.41
2024-02-05T02:07:44.050Z,96355.50
2024-02-05T02:10:12.362Z,96344.38
2024-02-05T02:12:40.732Z,96346.25
2024-02-05T02:15:09.543Z,96336.53
2024-02-05T02:17:42.164Z,96330.88
2024-02-05T02:20:11.973Z,96333.47
2024-02-05T02:22:54.791Z,96334.66
2024-02-05T02:25:24.626Z,96333.56
2024-02-05T02:27:52.742Z,96337.63
2024-02-05T02:30:23.093Z,96332.75
2024-02-05T02:33:02.520Z,96328.38
2024-02-05T02:35:35.593Z,96320.19
2024-02-05T02:38:12.918Z,96327.72
2024-02-05T02:40:43.086Z,96327.19
2024-02-05T02:43:12.297Z,96326.91
2024-02-05T02:45:40.677Z,96312.00
2024-02-05T02:48:09.058Z,96313.94
2024-02-05T02:50:37.202Z,96312.00
2024-02-05T02:53:05.456Z,96316.09
2024-02-05T02:55:33.400Z,96306.22
2024-02-05T02:58:02.808Z,96314.09
2024-02-05T03:00:30.904Z,96313.81
2024-02-05T03:02:58.877Z,96313.19
2024-02-05T03:05:27.471Z,96310.81
2024-02-05T03:07:55.415Z,96305.38
2024-02-05T03:10:23.455Z,96313.44
2024-02-05T03:12:51.514Z,96305.56
2024-02-05T03:15:21.848Z,96309.41
2024-02-05T03:17:49.869Z,96308.16
2024-02-05T03:20:34.784Z,96310.19
2024-02-05T03:23:08.812Z,96315.34
2024-02-05T03:25:38.869Z,96309.91
2024-02-05T03:28:08.932Z,96303.13
2024-02-05T03:30:39.504Z,96302.59
2024-02-05T03:33:07.932Z,96301.50
2024-02-05T03:35:36.599Z,96300.84
2024-02-05T03:38:05.245Z,96299.88
2024-02-05T03:40:33.255Z,96300.16
2024-02-05T03:43:01.257Z,96298.53
2024-02-05T03:45:30.079Z,96296.13
2024-02-05T03:47:59.508Z,96293.94
2024-02-05T03:50:27.498Z,96295.72
2024-02-05T03:52:55.777Z,96294.25
2024-02-05T03:55:23.778Z,96287.06
2024-02-05T03:57:59.695Z,96282.13
2024-02-05T04:00:27.910Z,96281.41
2024-02-05T04:02:57.248Z,96283.44
2024-02-05T04:05:29.700Z,96294.28
2024-02-05T04:07:58.515Z,96288.84
2024-02-05T04:10:27.152Z,96288.28
2024-02-05T04:12:55.320Z,96289.22
2024-02-05T04:15:23.505Z,96294.13
2024-02-05T04:17:51.523Z,96297.63
2024-02-05T04:20:20.792Z,96298.09
2024-02-05T04:22:51.044Z,96294.69
2024-02-05T04:25:19.295Z,96292.91
2024-02-05T04:27:47.590Z,96298.47
2024-02-05T04:30:17.397Z,96294.38
2024-02-05T04:32:45.732Z,96290.59
2024-02-05T04:35:13.972Z,96302.25
2024-02-05T04:37:44.032Z,96304.09
2024-02-05T04:40:13.850Z,96306.25
2024-02-05T04:42:42.038Z,96306.81
2024-02-05T04:45:11.027Z,96301.78
2024-02-05T04:47:39.631Z,96297.88
2024-02-05T04:50:08.763Z,96295.44
2024-02-05T04:52:37.066Z,96296.09
2024-02-05T04:55:05.645Z,96287.28
2024-02-05T04:57:35.111Z,96286.63
2024-02-05T05:00:03.285Z,96282.81
2024-02-05T05:02:31.279Z,96285.38
2024-02-05T05:04:59.258Z,96282.13
2024-02-05T05:07:28.542Z,96276.59
2024-02-05T05:09:56.583Z,96274.06
2024-02-05T05:12:24.576Z,96271.38
2024-02-05T05:14:53.874Z,96275.72
2024-02-05T05:17:22.052Z,96274.66
2024-02-05T05:19:50.167Z,96263.41
2024-02-05T05:22:18.298Z,96273.44
2024-02-05T05:24:46.591Z,96270.72
2024-02-05T05:27:14.576Z,96270.19
2024-02-05T05:29:42.537Z,96265.16
2024-02-05T05:32:11.863Z,96272.19
2024-02-05T05:34:40.156Z,96269.50
2024-02-05T05:37:08.370Z,96270.34
2024-02-05T05:39:36.514Z,96267.22
2024-02-05T05:42:04.775Z,96261.66
2024-02-05T05:44:32.752Z,96261.09
2024-02-05T05:47:00.729Z,96257.00
2024-02-05T05:49:30.714Z,96254.81
2024-02-05T05:51:59.020Z,96253.63
2024-02-05T05:54:27.333Z,96254.28
2024-02-05T05:56:55.760Z,96247.53
2024-02-05T05:59:23.856Z,96254.69
2024-02-05T06:01:52.642Z,96253.34
2024-02-05T06:04:20.711Z,96255.25
2024-02-05T06:06:50.400Z,96257.00
2024-02-05T06:09:19.928Z,96253.81
2024-02-05T06:11:48.015Z,96243.44
2024-02-05T06:14:16.046Z,96242.91
2024-02-05T06:16:44.116Z,96251.44
2024-02-05T06:19:12.136Z,96243.72
2024-02-05T06:21:40.194Z,96250.78
2024-02-05T06:24:09.657Z,96250.09
2024-02-05T06:26:37.621Z,96257.16
2024-02-05T06:29:05.547Z,96254.81
2024-02-05T06:31:33.642Z,96254.84
2024-02-05T06:34:02.555Z,96255.72
2024-02-05T06:36:31.433Z,96258.69
2024-02-05T06:38:59.406Z,96258.56
2024-02-05T06:41:28.687Z,96252.56
2024-02-05T06:43:56.694Z,96247.56
2024-02-05T06:46:24.828Z,96252.72
2024-02-05T06:48:52.971Z,96246.47
2024-02-05T06:51:21.013Z,96250.81
2024-02-05T06:53:49.109Z,96251.47
2024-02-05T06:56:17.440Z,96254.06
2024-02-05T06:58:46.791Z,96265.00
2024-02-05T07:01:15.275Z,96266.91
2024-02-05T07:03:43.385Z,96266.09
2024-02-05T07:06:12.118Z,96273.31
2024-02-05T07:08:40.320Z,96274.66
2024-02-05T07:11:08.296Z,96277.63
2024-02-05T07:13:36.679Z,96280.88
2024-02-05T07:16:06.994Z,96277.88
2024-02-05T07:18:35.137Z,96284.38
2024-02-05T07:21:06.203Z,96277.03
2024-02-05T07:23:34.267Z,96275.69
2024-02-05T07:26:02.226Z,96282.72
2024-02-05T07:28:30.963Z,96292.44
2024-02-05T07:31:00.117Z,96291.47
2024-02-05T07:33:29.440Z,96295.69
2024-02-05T07:35:59.854Z,96293.25
2024-02-05T07:38:28.009Z,96287.28
2024-02-05T07:40:56.016Z,96296.63
2024-02-05T07:43:24.408Z,96295.81
2024-02-05T07:45:52.508Z,96296.19
2024-02-05T07:48:21.154Z,96296.69
2024-02-05T07:50:50.713Z,96287.91
2024-02-05T07:53:18.729Z,96292.53
2024-02-05T07:55:46.683Z,96288.19
2024-02-05T07:58:14.782Z,96288.88
2024-02-05T08:00:45.535Z,96288.75
2024-02-05T08:03:14.563Z,96293.88
2024-02-05T08:05:42.754Z,96293.31
2024-02-05T08:08:12.166Z,96293.72
2024-02-05T08:10:40.277Z,96300.78
2024-02-05T08:13:08.483Z,96290.09
2024-02-05T08:15:36.441Z,96288.47
2024-02-05T08:18:04.717Z,96287.38
2024-02-05T08:20:32.713Z,96289.81
2024-02-05T08:23:00.666Z,96293.44
2024-02-05T08:25:31.464Z,96290.06
2024-02-05T08:28:01.094Z,96291.56
2024-02-05T08:30:29.168Z,96289.19
2024-02-05T08:32:57.239Z,96286.84
2024-02-05T08:35:25.316Z,96292.09
2024-02-05T08:37:54.056Z,96287.16
2024-02-05T08:40:22.144Z,96281.19
2024-02-05T08:42:51.532Z,96287.66
2024-02-05T08:45:20.065Z,96283.84
2024-02-05T08:47:48.111Z,96287.66
2024-02-05T08:50:16.567Z,96289.47
2024-02-05T08:52:44.676Z,96286.88
2024-02-05T08:55:12.606Z,96277.16
2024-02-05T08:57:43.380Z,96278.78
2024-02-05T09:00:15.188Z,96269.03
2024-02-05T09:02:43.361Z,96280.41
2024-02-05T09:05:11.554Z,96276.84
2024-02-05T09:07:40.736Z,96273.75
2024-02-05T09:10:09.584Z,96281.84
2024-02-05T09:12:37.612Z,96269.31
2024-02-05T09:15:06.387Z,96276.63
2024-02-05T09:17:35.816Z,96272.00
2024-02-05T09:20:04.153Z,96271.41
2024-02-05T09:22:35.012Z,96265.94
2024-02-05T09:25:03.611Z,96266.53
2024-02-05T09:27:31.650Z,96265.28
2024-02-05T09:29:59.642Z,96257.56
2024-02-05T09:32:27.681Z,96259.00
2024-02-05T09:34:59.122Z,96253.09
2024-02-05T09:37:27.320Z,96247.50
2024-02-05T09:39:55.422Z,96246.03
2024-02-05T09:42:23.425Z,96246.81
2024-02-05T09:44:52.627Z,96244.16
2024-02-05T09:47:21.809Z,96243.53
2024-02-05T09:49:50.661Z,96238.88
2024-02-05T09:52:21.063Z,96249.19
2024-02-05T09:54:49.788Z,96242.41
2024-02-05T09:57:18.992Z,96244.53
2024-02-05T09:59:48.067Z,96243.28
2024-02-05T10:02:18.021Z,96231.28
2024-02-05T10:04:46.477Z,96237.75
2024-02-05T10:07:16.184Z,96238.50
2024-02-05T10:09:45.952Z,96245.44
2024-02-05T10:12:14.995Z,96242.97
2024-02-05T10:14:43.966Z,96237.75
2024-02-05T10:17:12.626Z,96236.19
2024-02-05T10:19:40.919Z,96236.72
2024-02-05T10:22:10.319Z,96241.06
2024-02-05T10:24:41.759Z,96237.66
2024-02-05T10:27:16.883Z,96227.34
2024-02-05T10:29:44.981Z,96233.69
2024-02-05T10:32:12.947Z,96232.38
2024-02-05T10:34:41.349Z,96222.34
2024-02-05T10:37:11.786Z,96221.53
2024-02-05T10:39:39.854Z,96224.50
2024-02-05T10:42:07.868Z,96220.13
2024-02-05T10:44:41.508Z,96213.56
2024-02-05T10:47:11.029Z,96212.28
2024-02-05T10:49:39.928Z,96208.13
2024-02-05T10:52:11.181Z,96203.56
2024-02-05T10:54:42.872Z,96199.41
2024-02-05T10:57:11.348Z,96200.44
2024-02-05T10:59:40.708Z,96180.47
2024-02-05T11:02:15.719Z,96171.16
2024-02-05T11:04:44.333Z,96180.25
2024-02-05T11:07:18.381Z,96172.53
2024-02-05T11:09:50.850Z,96171.53
2024-02-05T11:12:23.757Z,96170.56
2024-02-05T11:14:58.337Z,96158.03
2024-02-05T11:17:27.288Z,96157.34
2024-02-05T11:19:57.552Z,96155.97
2024-02-05T11:22:26.786Z,96162.81
2024-02-05T11:24:54.839Z,96156.44
2024-02-05T11:27:22.907Z,96160.28
2024-02-05T11:29:53.456Z,96151.88
2024-02-05T11:32:31.481Z,96156.53
2024-02-05T11:34:59.639Z,96156.44
2024-02-05T11:37:28.964Z,96148.03
2024-02-05T11:40:00.321Z,96131.91
2024-02-05T11:42:29.873Z,96137.44
2024-02-05T11:45:00.902Z,96144.47
2024-02-05T11:47:29.485Z,96139.16
2024-02-05T11:49:59.322Z,96142.63
2024-02-05T11:52:27.598Z,96130.28
2024-02-05T11:54:57.417Z,96129.38
2024-02-05T11:57:26.467Z,96123.03
2024-02-05T11:59:54.433Z,96125.50
2024-02-05T12:02:24.707Z,96125.84
2024-02-05T12:04:53.278Z,96123.13
2024-02-05T12:07:24.130Z,96116.81
2024-02-05T12:09:52.567Z,96114.25
2024-02-05T12:12:21.175Z,96107.78
2024-02-05T12:14:49.124Z,96095.16
2024-02-05T12:17:17.319Z,96095.16
2024-02-05T12:19:46.961Z,96092.88
2024-02-05T12:22:16.034Z,96086.72
2024-02-05T12:24:44.175Z,96088.00
2024-02-05T12:27:12.158Z,96082.53
2024-02-05T12:29:40.125Z,96070.19
2024-02-05T12:32:08.969Z,96078.84
2024-02-05T12:34:37.713Z,96072.31
2024-02-05T12:37:08.441Z,96069.44
2024-02-05T12:39:37.806Z,96071.00
2024-02-05T12:42:06.415Z,96069.03
2024-02-05T12:44:40.517Z,96073.78
2024-02-05T12:47:12.670Z,96071.84
2024-02-05T12:49:41.791Z,96064.19
2024-02-05T12:52:11.638Z,96056.09
2024-02-05T12:54:40.605Z,96061.19
2024-02-05T12:57:09.559Z,96060.06
2024-02-05T12:59:37.670Z,96054.25
2024-02-05T13:02:07.325Z,96055.00
2024-02-05T13:04:37.332Z,96057.59
2024-02-05T13:07:09.689Z,96056.63
2024-02-05T13:09:43.254Z,96060.19
2024-02-05T13:12:13.565Z,96052.78
2024-02-05T13:14:41.699Z,96044.28
2024-02-05T13:17:09.722Z,96046.25
2024-02-05T13:19:38.607Z,96041.63
2024-02-05T13:22:07.803Z,96036.34
2024-02-05T13:24:37.599Z,96027.13
2024-02-05T13:27:07.305Z,96028.59
2024-02-05T13:29:35.300Z,96022.34
2024-02-05T13:32:03.404Z,96023.94
2024-02-05T13:34:33.314Z,96014.59
2024-02-05T13:37:01.768Z,96018.00
2024-02-05T13:39:29.839Z,96013.78
2024-02-05T13:41:58.144Z,96010.56
2024-02-05T13:44:28.028Z,96011.66
2024-02-05T13:46:56.028Z,96007.59
2024-02-05T13:49:24.113Z,95999.63
2024-02-05T13:51:52.351Z,96002.47
2024-02-05T13:54:20.444Z,96004.44
2024-02-05T13:56:50.412Z,95999.50
2024-02-05T13:59:18.845Z,95997.63
2024-02-05T14:01:52.982Z,95993.44
2024-02-05T14:04:21.462Z,95998.75
2024-02-05T14:06:49.662Z,95995.06
2024-02-05T14:09:17.793Z,95995.28
2024-02-05T14:11:45.773Z,95994.66
2024-02-05T14:14:13.728Z,95999.44
2024-02-05T14:16:41.821Z,95998.28
2024-02-05T14:19:11.238Z,95989.34
2024-02-05T14:21:41.534Z,95987.97
2024-02-05T14:24:10.339Z,95995.06
2024-02-05T14:26:39.072Z,95995.91
2024-02-05T14:29:07.038Z,95995.41
2024-02-05T14:31:35.097Z,95995.06
2024-02-05T14:34:03.936Z,95989.09
2024-02-05T14:36:33.511Z,95990.88
2024-02-05T14:39:01.509Z,95994.97
2024-02-05T14:41:29.515Z,95989.00
2024-02-05T14:43:57.458Z,95992.88
2024-02-05T14:46:25.516Z,95983.94
2024-02-05T14:48:53.666Z,95979.72
2024-02-05T14:51:21.786Z,95985.41
2024-02-05T14:53:51.241Z,95984.56
2024-02-05T14:56:19.219Z,95984.94
2024-02-05T14:58:47.177Z,95981.72
2024-02-05T15:01:15.251Z,95984.19
2024-02-05T15:03:46.145Z,95984.78
2024-02-05T15:06:14.404Z,95982.19
2024-02-05T15:08:42.660Z,95984.94
2024-02-05T15:11:12.603Z,95988.16
2024-02-05T15:13:40.722Z,95982.69
2024-02-05T15:16:09.909Z,95979.56
2024-02-05T15:18:37.948Z,95980.09
2024-02-05T15:21:06.099Z,95977.59
2024-02-05T15:23:37.330Z,95973.13
2024-02-05T15:26:05.589Z,95971.34
2024-02-05T15:28:34.950Z,95967.28
2024-02-05T15:31:03.129Z,95975.44
2024-02-05T15:33:31.145Z,95971.44
2024-02-05T15:35:59.245Z,95968.63
2024-02-05T15:38:27.236Z,95970.50
2024-02-05T15:40:55.207Z,95965.00
2024-02-05T15:43:23.677Z,95970.28
2024-02-05T15:45:53.164Z,95972.50
2024-02-05T15:48:21.699Z,95966.16
2024-02-05T15:50:49.849Z,95968.28
2024-02-05T15:53:19.021Z,95968.50
2024-02-05T15:55:48.177Z,95966.91
2024-02-05T15:58:16.716Z,95965.22
2024-02-05T16:00:45.454Z,95969.06
2024-02-05T16:03:14.897Z,95974.16
2024-02-05T16:05:42.970Z,95970.16
2024-02-05T16:08:11.081Z,95972.44
2024-02-05T16:10:39.331Z,95972.28
2024-02-05T16:13:07.820Z,95973.13
2024-02-05T16:15:35.872Z,95967.78
2024-02-05T16:18:04.742Z,95969.78
2024-02-05T16:20:35.717Z,95968.53
2024-02-05T16:23:04.570Z,95970.22
2024-02-05T16:25:35.567Z,95967.53
2024-02-05T16:28:03.870Z,95977.19
2024-02-05T16:30:34.049Z,95964.97
2024-02-05T16:33:02.679Z,95964.63
2024-02-05T16:35:30.784Z,95974.94
2024-02-05T16:38:00.209Z,95975.66
2024-02-05T16:40:28.358Z,95974.56
2024-02-05T16:42:56.387Z,95979.34
2024-02-05T16:45:24.396Z,95978.59
2024-02-05T16:47:52.408Z,95981.97
2024-02-05T16:50:20.654Z,95974.13
2024-02-05T16:52:49.486Z,95983.09
2024-02-05T16:55:19.005Z,95983.47
2024-02-05T16:57:47.101Z,95982.19
2024-02-05T17:00:15.684Z,95990.59
2024-02-05T17:02:43.613Z,95990.25
2024-02-05T17:05:11.938Z,96006.22
2024-02-05T17:07:45.289Z,95998.22
2024-02-05T17:10:13.735Z,95997.97
2024-02-05T17:12:43.107Z,96003.34
2024-02-05T17:15:11.151Z,96009.25
2024-02-05T17:17:39.185Z,96000.47
2024-02-05T17:20:08.534Z,95994.94
2024-02-05T17:22:36.959Z,96003.88
2024-02-05T17:25:05.441Z,95997.88
2024-02-05T17:27:33.906Z,95993.38
2024-02-05T17:30:03.320Z,95996.28
2024-02-05T17:32:31.579Z,95995.00
2024-02-05T17:35:01.204Z,96005.34
2024-02-05T17:37:29.402Z,95998.91
2024-02-05T17:39:57.556Z,96000.94
2024-02-05T17:42:25.768Z,96013.56
2024-02-05T17:44:53.700Z,96002.59
2024-02-05T17:47:23.054Z,95997.16
2024-02-05T17:49:51.112Z,96002.31
2024-02-05T17:52:19.224Z,96006.03
2024-02-05T17:54:47.262Z,96003.91
2024-02-05T17:57:15.258Z,96001.34
2024-02-05T17:59:43.397Z,96009.13
2024-02-05T18:02:11.849Z,96003.81
2024-02-05T18:04:41.415Z,96008.81
2024-02-05T18:07:09.549Z,96013.31
2024-02-05T18:09:37.570Z,96015.59
2024-02-05T18:12:08.358Z,96016.88
2024-02-05T18:14:37.181Z,96020.44
2024-02-05T18:17:05.675Z,96020.13
2024-02-05T18:19:33.946Z,96012.38
2024-02-05T18:22:03.369Z,96016.59
2024-02-05T18:24:37.965Z,96013.72
2024-02-05T18:27:13.653Z,96003.38
2024-02-05T18:29:41.604Z,96011.09
2024-02-05T18:32:09.558Z,96012.22
2024-02-05T18:34:42.396Z,96015.78
2024-02-05T18:37:14.453Z,96008.56
2024-02-05T18:39:42.706Z,96012.09
2024-02-05T18:42:10.724Z,96013.53
2024-02-05T18:44:38.698Z,96007.56
2024-02-05T18:47:07.578Z,96010.16
2024-02-05T18:49:35.622Z,96018.56
2024-02-05T18:52:07.835Z,96019.22
2024-02-05T18:54:39.189Z,96016.97
2024-02-05T18:57:09.902Z,96023.91
2024-02-05T18:59:37.937Z,96016.31
2024-02-05T19:02:06.083Z,96011.63
2024-02-05T19:04:34.128Z,96009.38
2024-02-05T19:07:02.109Z,96006.28
2024-02-05T19:09:30.164Z,96005.97
2024-02-05T19:11:59.686Z,96013.56
2024-02-05T19:14:27.666Z,96021.72
2024-02-05T19:16:55.714Z,96022.00
2024-02-05T19:19:23.849Z,96018.41
2024-02-05T19:21:52.107Z,96019.75
2024-02-05T19:24:20.504Z,96024.00
2024-02-05T19:26:50.021Z,96020.13
2024-02-05T19:29:21.300Z,96013.38
2024-02-05T19:31:49.574Z,96019.50
2024-02-05T19:34:20.238Z,96019.50
2024-02-05T19:36:48.273Z,96014.91
2024-02-05T19:39:16.360Z,96015.88
2024-02-05T19:41:44.518Z,96016.06
2024-02-05T19:44:12.601Z,96016.69
2024-02-05T19:46:42.108Z,96016.53
2024-02-05T19:49:10.269Z,96024.53
2024-02-05T19:51:38.238Z,96010.63
2024-02-05T19:54:06.766Z,96013.91
2024-02-05T19:56:34.703Z,96014.91
2024-02-05T19:59:02.791Z,96017.97
2024-02-05T20:01:31.044Z,96021.28
2024-02-05T20:04:00.626Z,96014.59
2024-02-05T20:06:28.730Z,96012.75
2024-02-05T20:08:56.730Z,96010.09
2024-02-05T20:11:24.724Z,96012.53
2024-02-05T20:13:52.681Z,96019.75
2024-02-05T20:16:27.499Z,96019.53
2024-02-05T20:18:56.288Z,96018.31
2024-02-05T20:21:26.232Z,96015.44
2024-02-05T20:23:55.828Z,96024.22
2024-02-05T20:26:24.215Z,96027.50
2024-02-05T20:28:52.199Z,96014.22
2024-02-05T20:31:20.231Z,96016.47
2024-02-05T20:33:48.266Z,96014.84
2024-02-05T20:36:16.226Z,96014.38
2024-02-05T20:38:45.993Z,96013.09
2024-02-05T20:41:14.234Z,96011.78
2024-02-05T20:43:46.542Z,96010.34
2024-02-05T20:46:15.230Z,96011.63
2024-02-05T20:48:43.204Z,96004.69
2024-02-05T20:51:11.236Z,96001.63
2024-02-05T20:53:39.387Z,96002.66
2024-02-05T20:56:09.091Z,96008.41
2024-02-05T20:58:37.181Z,96009.03
2024-02-05T21:01:05.587Z,96005.81
2024-02-05T21:03:36.739Z,96002.91
2024-02-05T21:06:05.655Z,95998.88
2024-02-05T21:08:34.328Z,95992.59
2024-02-05T21:11:04.450Z,95997.16
2024-02-05T21:13:34.675Z,96004.22
2024-02-05T21:16:02.990Z,96002.91
2024-02-05T21:18:31.211Z,95996.38
2024-02-05T21:20:59.522Z,95991.66
2024-02-05T21:23:27.524Z,95988.56
2024-02-05T21:25:55.451Z,95989.88
2024-02-05T21:28:23.481Z,95982.84
2024-02-05T21:30:52.892Z,95984.63
2024-02-05T21:33:20.921Z,95989.59
2024-02-05T21:35:49.006Z,95992.13
2024-02-05T21:38:17.028Z,95980.19
2024-02-05T21:40:45.404Z,95983.31
2024-02-05T21:43:13.532Z,95978.34
2024-02-05T21:45:41.620Z,95988.03
2024-02-05T21:48:11.722Z,95986.63
2024-02-05T21:50:40.627Z,95987.44
2024-02-05T21:53:08.718Z,95983.09
2024-02-05T21:55:36.847Z,95991.34
2024-02-05T21:58:05.113Z,95987.16
2024-02-05T22:00:33.160Z,95986.78
2024-02-05T22:03:01.169Z,95988.66
2024-02-05T22:05:30.652Z,95989.28
2024-02-05T22:07:58.806Z,95986.72
2024-02-05T22:10:26.738Z,95985.44
2024-02-05T22:12:54.819Z,95988.97
2024-02-05T22:15:22.842Z,95982.19
2024-02-05T22:17:51.916Z,95979.13
2024-02-05T22:20:20.206Z,95978.06
2024-02-05T22:22:49.578Z,95974.22
2024-02-05T22:25:18.564Z,95977.13
2024-02-05T22:27:46.727Z,95984.91
2024-02-05T22:30:15.410Z,95984.19
2024-02-05T22:32:43.395Z,95981.84
2024-02-05T22:35:11.734Z,95970.25
2024-02-05T22:37:39.851Z,95972.84
2024-02-05T22:40:10.841Z,95968.81
2024-02-05T22:42:39.164Z,95972.84
2024-02-05T22:45:08.660Z,95972.53
2024-02-05T22:47:36.906Z,95973.47
2024-02-05T22:50:05.920Z,95977.78
2024-02-05T22:52:35.577Z,95985.47
2024-02-05T22:55:04.685Z,95980.34
2024-02-05T22:57:34.547Z,95977.78
2024-02-05T23:00:03.050Z,95977.78
2024-02-05T23:02:31.899Z,95970.63
2024-02-05T23:05:00.037Z,95970.81
2024-02-05T23:07:28.090Z,95974.47
2024-02-05T23:09:56.037Z,95969.41
2024-02-05T23:12:24.223Z,95981.84
2024-02-05T23:14:53.577Z,95988.13
2024-02-05T23:17:21.530Z,95985.38
2024-02-05T23:19:49.578Z,95978.78
2024-02-05T23:22:17.909Z,95979.41
2024-02-05T23:24:46.174Z,95975.25
2024-02-05T23:27:14.088Z,95973.72
2024-02-05T23:29:42.236Z,95970.50
2024-02-05T23:32:11.599Z,95971.50
2024-02-05T23:34:39.851Z,95969.13
2024-02-05T23:37:08.398Z,95962.19
2024-02-05T23:39:37.455Z,95967.91
2024-02-05T23:42:05.996Z,95965.00
2024-02-05T23:44:33.925Z,95949.09
2024-02-05T23:47:01.909Z,95960.50
2024-02-05T23:49:31.389Z,95959.19
2024-02-05T23:51:59.427Z,95961.09
2024-02-05T23:54:27.399Z,95955.66
2024-02-05T23:56:55.735Z,95963.75
2024-02-05T23:59:23.791Z,95961.00
